createdAt,value
2023-05-01T00:00:50.400Z,6.18
2023-05-01T00:03:17.019Z,6.19
2023-05-01T00:05:43.674Z,6.17
2023-05-01T00:08:10.249Z,6.48
2023-05-01T00:10:36.768Z,6.22
2023-05-01T00:13:03.313Z,6.00
2023-05-01T00:15:29.803Z,6.27
2023-05-01T00:17:56.394Z,6.17
2023-05-01T00:20:22.966Z,5.90
2023-05-01T00:22:49.450Z,6.24
2023-05-01T00:25:16.091Z,6.12
2023-05-01T00:27:42.616Z,6.33
2023-05-01T00:30:09.119Z,6.36
2023-05-01T00:32:35.616Z,6.21
2023-05-01T00:35:02.083Z,6.30
2023-05-01T00:37:28.615Z,6.20
2023-05-01T00:39:55.232Z,5.90
2023-05-01T00:42:21.908Z,6.07
2023-05-01T00:44:48.430Z,6.18
2023-05-01T00:47:14.991Z,6.13
2023-05-01T00:49:41.593Z,6.05
2023-05-01T00:52:08.154Z,6.04
2023-05-01T00:54:34.665Z,5.98
2023-05-01T00:57:01.239Z,5.97
2023-05-01T00:59:27.774Z,5.99
2023-05-01T01:01:56.356Z,6.15
2023-05-01T01:04:23.301Z,5.95
2023-05-01T01:06:49.855Z,6.07
2023-05-01T01:09:16.444Z,6.00
2023-05-01T01:11:42.971Z,6.10
2023-05-01T01:14:09.491Z,6.22
2023-05-01T01:16:36.123Z,6.08
2023-05-01T01:19:02.724Z,5.89
2023-05-01T01:21:29.239Z,5.84
2023-05-01T01:23:55.736Z,6.01
2023-05-01T01:26:22.265Z,6.24
2023-05-01T01:28:48.735Z,6.17
2023-05-01T01:31:15.566Z,5.95
2023-05-01T01:33:42.139Z,6.09
2023-05-01T01:36:08.642Z,6.03
2023-05-01T01:38:35.109Z,6.09
2023-05-01T01:41:01.725Z,6.22
2023-05-01T01:43:28.279Z,5.69
2023-05-01T01:45:54.789Z,5.89
2023-05-01T01:48:21.361Z,5.82
2023-05-01T01:50:47.879Z,5.85
2023-05-01T01:53:14.343Z,5.90
2023-05-01T01:55:40.776Z,6.01
2023-05-01T01:58:07.344Z,5.87
2023-05-01T02:00:33.842Z,5.74
2023-05-01T02:03:00.445Z,5.99
2023-05-01T02:05:27.201Z,6.04
2023-05-01T02:07:53.674Z,5.67
2023-05-01T02:10:20.183Z,5.87
2023-05-01T02:12:46.615Z,5.74
2023-05-01T02:15:17.471Z,5.70
2023-05-01T02:17:43.981Z,5.65
2023-05-01T02:20:10.524Z,5.86
2023-05-01T02:22:37.045Z,6.02
2023-05-01T02:25:03.512Z,5.73
2023-05-01T02:27:30.010Z,5.53
2023-05-01T02:29:56.799Z,5.74
2023-05-01T02:32:23.558Z,5.57
2023-05-01T02:34:50.405Z,5.65
2023-05-01T02:37:17.269Z,5.72
2023-05-01T02:39:43.769Z,5.81
2023-05-01T02:42:10.318Z,5.70
2023-05-01T02:44:36.822Z,5.47
2023-05-01T02:47:03.447Z,5.23
2023-05-01T02:49:30.016Z,5.58
2023-05-01T02:51:56.572Z,5.54
2023-05-01T02:54:23.065Z,5.16
2023-05-01T02:56:49.545Z,5.36
2023-05-01T02:59:16.075Z,5.66
2023-05-01T03:01:42.732Z,5.63
2023-05-01T03:04:09.447Z,5.47
2023-05-01T03:06:36.112Z,5.59
2023-05-01T03:09:02.710Z,5.31
2023-05-01T03:11:30.600Z,5.57
2023-05-01T03:13:57.087Z,5.64
2023-05-01T03:16:23.628Z,5.81
2023-05-01T03:18:50.176Z,5.23
2023-05-01T03:21:16.575Z,5.09
2023-05-01T03:23:43.168Z,5.32
2023-05-01T03:26:09.675Z,5.53
2023-05-01T03:28:36.166Z,5.44
2023-05-01T03:31:02.767Z,5.21
2023-05-01T03:33:29.211Z,5.17
2023-05-01T03:35:55.740Z,5.12
2023-05-01T03:38:22.225Z,5.27
2023-05-01T03:40:48.737Z,5.31
2023-05-01T03:43:15.244Z,5.42
2023-05-01T03:45:44.230Z,5.42
2023-05-01T03:48:11.431Z,5.37
2023-05-01T03:50:38.049Z,5.46
2023-05-01T03:53:04.544Z,5.24
2023-05-01T03:55:31.062Z,5.51
2023-05-01T03:57:57.662Z,5.23
2023-05-01T04:00:24.176Z,5.27
2023-05-01T04:02:51.059Z,5.29
2023-05-01T04:05:17.871Z,5.59
2023-05-01T04:07:44.449Z,5.46
2023-05-01T04:10:10.917Z,5.44
2023-05-01T04:12:37.387Z,5.59
2023-05-01T04:15:03.793Z,5.54
2023-05-01T04:17:30.338Z,5.54
2023-05-01T04:19:57.113Z,5.35
2023-05-01T04:22:23.977Z,5.25
2023-05-01T04:24:50.473Z,5.33
2023-05-01T04:27:16.999Z,5.32
2023-05-01T04:29:43.507Z,5.49
2023-05-01T04:32:10.077Z,5.71
2023-05-01T04:34:36.703Z,5.73
2023-05-01T04:37:03.187Z,5.50
2023-05-01T04:39:29.774Z,5.65
2023-05-01T04:41:56.348Z,5.51
2023-05-01T04:44:22.899Z,5.33
2023-05-01T04:46:49.542Z,5.14
2023-05-01T04:49:16.100Z,5.30
2023-05-01T04:51:42.643Z,5.26
2023-05-01T04:54:09.187Z,5.26
2023-05-01T04:56:35.836Z,5.22
2023-05-01T04:59:02.240Z,5.36
2023-05-01T05:01:28.761Z,5.10
2023-05-01T05:03:55.421Z,5.17
2023-05-01T05:06:23.411Z,5.02
2023-05-01T05:08:49.932Z,5.35
2023-05-01T05:11:17.545Z,5.41
2023-05-01T05:13:44.041Z,5.37
2023-05-01T05:16:10.531Z,4.97
2023-05-01T05:18:37.078Z,5.15
2023-05-01T05:21:03.536Z,5.21
2023-05-01T05:23:30.012Z,5.36
2023-05-01T05:25:56.559Z,5.15
2023-05-01T05:28:23.064Z,5.26
2023-05-01T05:30:49.616Z,5.17
2023-05-01T05:33:16.036Z,4.89
2023-05-01T05:35:42.611Z,5.25
2023-05-01T05:38:09.111Z,5.20
2023-05-01T05:40:35.592Z,5.16
2023-05-01T05:43:02.106Z,4.67
2023-05-01T05:45:28.672Z,4.98
2023-05-01T05:47:55.234Z,4.95
2023-05-01T05:50:21.822Z,4.98
2023-05-01T05:52:48.315Z,4.66
2023-05-01T05:55:14.841Z,5.00
2023-05-01T05:57:41.334Z,4.94
2023-05-01T06:00:07.846Z,4.98
2023-05-01T06:02:34.496Z,5.14
2023-05-01T06:05:01.135Z,4.81
2023-05-01T06:07:27.700Z,4.87
2023-05-01T06:09:54.903Z,5.14
2023-05-01T06:12:21.634Z,4.77
2023-05-01T06:14:49.016Z,4.79
2023-05-01T06:17:15.571Z,4.81
2023-05-01T06:19:42.122Z,4.80
2023-05-01T06:22:08.567Z,4.63
2023-05-01T06:24:35.043Z,4.51
2023-05-01T06:27:01.736Z,4.52
2023-05-01T06:29:28.286Z,4.30
2023-05-01T06:31:54.832Z,4.29
2023-05-01T06:34:21.400Z,4.23
2023-05-01T06:36:47.966Z,3.99
2023-05-01T06:39:14.497Z,3.96
2023-05-01T06:41:40.982Z,4.08
2023-05-01T06:44:07.569Z,4.13
2023-05-01T06:46:34.094Z,3.86
2023-05-01T06:49:00.753Z,4.18
2023-05-01T06:51:27.333Z,4.30
2023-05-01T06:53:53.904Z,3.83
2023-05-01T06:56:20.431Z,4.10
2023-05-01T06:58:46.921Z,4.24
2023-05-01T07:01:13.435Z,4.19
2023-05-01T07:03:40.062Z,3.96
2023-05-01T07:06:06.618Z,4.00
2023-05-01T07:08:33.124Z,4.24
2023-05-01T07:10:59.672Z,4.79
2023-05-01T07:13:28.631Z,4.48
2023-05-01T07:15:55.329Z,4.65
2023-05-01T07:18:22.006Z,4.46
2023-05-01T07:20:48.450Z,4.43
2023-05-01T07:23:14.979Z,4.48
2023-05-01T07:25:41.462Z,4.56
2023-05-01T07:28:07.992Z,4.64
2023-05-01T07:30:34.432Z,4.72
2023-05-01T07:33:01.086Z,4.42
2023-05-01T07:35:27.651Z,4.59
2023-05-01T07:37:54.196Z,4.84
2023-05-01T07:40:20.653Z,4.78
2023-05-01T07:42:47.125Z,4.69
2023-05-01T07:45:13.604Z,5.25
2023-05-01T07:47:40.051Z,5.39
2023-05-01T07:50:07.675Z,4.78
2023-05-01T07:52:34.101Z,4.95
2023-05-01T07:55:00.564Z,4.80
2023-05-01T07:57:26.996Z,4.93
2023-05-01T07:59:53.837Z,4.70
2023-05-01T08:02:20.461Z,4.87
2023-05-01T08:04:46.986Z,4.55
2023-05-01T08:07:13.420Z,4.87
2023-05-01T08:09:39.894Z,4.77
2023-05-01T08:12:06.387Z,5.00
2023-05-01T08:14:32.894Z,4.90
2023-05-01T08:16:59.349Z,4.92
2023-05-01T08:19:25.740Z,4.57
2023-05-01T08:21:52.239Z,4.74
2023-05-01T08:24:18.815Z,5.05
2023-05-01T08:26:45.284Z,4.71
2023-05-01T08:29:11.796Z,4.80
2023-05-01T08:31:38.303Z,4.76
2023-05-01T08:34:04.866Z,4.76
2023-05-01T08:36:31.390Z,4.65
2023-05-01T08:38:57.899Z,4.71
2023-05-01T08:41:24.332Z,4.48
2023-05-01T08:43:50.808Z,4.70
2023-05-01T08:46:17.379Z,4.70
2023-05-01T08:48:43.839Z,4.68
2023-05-01T08:51:10.330Z,4.66
2023-05-01T08:53:36.871Z,4.59
2023-05-01T08:56:03.373Z,4.46
2023-05-01T08:58:29.916Z,4.63
2023-05-01T09:00:56.477Z,4.41
2023-05-01T09:03:23.029Z,4.57
2023-05-01T09:05:49.690Z,4.61
2023-05-01T09:08:16.257Z,4.51
2023-05-01T09:10:42.726Z,4.14
2023-05-01T09:13:09.132Z,4.51
2023-05-01T09:15:35.960Z,4.58
2023-05-01T09:18:03.776Z,4.42
2023-05-01T09:20:30.443Z,4.52
2023-05-01T09:22:57.207Z,4.42
2023-05-01T09:25:23.725Z,4.43
2023-05-01T09:27:50.145Z,4.38
2023-05-01T09:30:18.042Z,4.57
2023-05-01T09:32:44.516Z,4.08
2023-05-01T09:35:11.013Z,4.33
2023-05-01T09:37:37.461Z,4.13
2023-05-01T09:40:04.005Z,4.26
2023-05-01T09:42:30.557Z,3.98
2023-05-01T09:44:57.021Z,4.30
2023-05-01T09:47:23.485Z,4.07
2023-05-01T09:49:49.994Z,4.22
2023-05-01T09:52:16.448Z,4.02
2023-05-01T09:54:42.937Z,4.12
2023-05-01T09:57:09.453Z,4.21
2023-05-01T09:59:35.964Z,4.41
2023-05-01T10:02:02.513Z,4.28
2023-05-01T10:04:29.091Z,4.39
2023-05-01T10:06:55.777Z,3.87
2023-05-01T10:09:22.337Z,4.49
2023-05-01T10:11:48.773Z,6.63
2023-05-01T10:14:15.220Z,11.41
2023-05-01T10:16:41.893Z,14.55
2023-05-01T10:19:08.470Z,17.56
2023-05-01T10:21:34.969Z,20.28
2023-05-01T10:24:01.433Z,22.15
2023-05-01T10:26:27.909Z,21.26
2023-05-01T10:28:54.525Z,22.02
2023-05-01T10:31:21.286Z,26.64
2023-05-01T10:33:47.933Z,25.07
2023-05-01T10:36:14.460Z,24.56
2023-05-01T10:38:40.985Z,23.84
2023-05-01T10:41:07.524Z,22.38
2023-05-01T10:43:34.072Z,21.08
2023-05-01T10:46:00.560Z,22.40
2023-05-01T10:48:27.117Z,21.33
2023-05-01T10:50:53.675Z,20.39
2023-05-01T10:53:20.184Z,19.50
2023-05-01T10:55:46.718Z,18.40
2023-05-01T10:58:13.274Z,18.22
2023-05-01T11:00:39.753Z,17.70
2023-05-01T11:03:06.342Z,17.85
2023-05-01T11:05:38.484Z,17.82
2023-05-01T11:08:05.330Z,16.93
2023-05-01T11:10:31.838Z,16.85
2023-05-01T11:12:58.785Z,16.49
2023-05-01T11:15:25.227Z,16.64
2023-05-01T11:17:51.767Z,18.66
2023-05-01T11:20:18.302Z,22.50
2023-05-01T11:22:44.786Z,24.63
2023-05-01T11:25:11.314Z,25.03
2023-05-01T11:27:37.799Z,23.75
2023-05-01T11:30:04.242Z,22.64
2023-05-01T11:32:31.218Z,21.27
2023-05-01T11:34:58.086Z,21.29
2023-05-01T11:37:24.772Z,21.59
2023-05-01T11:39:51.211Z,20.27
2023-05-01T11:42:17.812Z,20.14
2023-05-01T11:44:44.275Z,19.21
2023-05-01T11:47:10.797Z,19.40
2023-05-01T11:49:37.299Z,18.09
2023-05-01T11:52:03.817Z,19.31
2023-05-01T11:54:30.371Z,19.21
2023-05-01T11:56:56.787Z,18.03
2023-05-01T11:59:23.214Z,17.59
2023-05-01T12:01:49.745Z,17.38
2023-05-01T12:04:16.412Z,16.90
2023-05-01T12:06:43.122Z,16.88
2023-05-01T12:09:09.726Z,16.18
2023-05-01T12:11:36.246Z,15.77
2023-05-01T12:14:02.726Z,15.05
2023-05-01T12:16:29.269Z,15.10
2023-05-01T12:18:55.802Z,14.88
2023-05-01T12:21:22.323Z,14.31
2023-05-01T12:23:48.736Z,14.16
2023-05-01T12:26:15.257Z,13.45
2023-05-01T12:28:41.783Z,13.44
2023-05-01T12:31:08.327Z,13.28
2023-05-01T12:33:34.830Z,13.58
2023-05-01T12:36:01.268Z,13.18
2023-05-01T12:38:27.718Z,13.05
2023-05-01T12:40:54.186Z,12.87
2023-05-01T12:43:20.753Z,12.73
2023-05-01T12:45:47.261Z,12.10
2023-05-01T12:48:13.862Z,12.57
2023-05-01T12:50:40.348Z,12.21
2023-05-01T12:53:06.849Z,11.69
2023-05-01T12:55:35.464Z,11.79
2023-05-01T12:58:01.991Z,11.93
2023-05-01T13:00:28.432Z,11.86
2023-05-01T13:02:54.953Z,11.28
2023-05-01T13:05:21.543Z,10.95
2023-05-01T13:07:48.059Z,11.10
2023-05-01T13:10:14.549Z,10.95
2023-05-01T13:12:41.036Z,11.22
2023-05-01T13:15:07.468Z,10.87
2023-05-01T13:17:33.988Z,10.82
2023-05-01T13:20:00.894Z,10.71
2023-05-01T13:22:27.800Z,10.89
2023-05-01T13:24:54.304Z,10.36
2023-05-01T13:27:20.821Z,10.20
2023-05-01T13:29:47.256Z,10.37
2023-05-01T13:32:13.881Z,10.12
2023-05-01T13:34:40.371Z,10.13
2023-05-01T13:37:06.967Z,9.96
2023-05-01T13:39:33.441Z,10.04
2023-05-01T13:41:59.917Z,9.71
2023-05-01T13:44:26.384Z,9.85
2023-05-01T13:46:52.875Z,10.01
2023-05-01T13:49:19.385Z,9.40
2023-05-01T13:51:45.885Z,9.07
2023-05-01T13:54:12.362Z,9.03
2023-05-01T13:56:38.859Z,9.45
2023-05-01T13:59:05.376Z,8.93
2023-05-01T14:01:31.917Z,9.12
2023-05-01T14:03:58.541Z,9.19
2023-05-01T14:06:25.134Z,9.02
2023-05-01T14:08:51.850Z,9.09
2023-05-01T14:11:18.376Z,8.98
2023-05-01T14:13:44.758Z,9.15
2023-05-01T14:16:11.282Z,8.74
2023-05-01T14:18:37.917Z,8.52
2023-05-01T14:21:04.617Z,8.69
2023-05-01T14:23:31.073Z,8.62
2023-05-01T14:25:57.626Z,8.00
2023-05-01T14:28:24.167Z,8.51
2023-05-01T14:30:50.700Z,8.49
2023-05-01T14:33:18.032Z,7.90
2023-05-01T14:35:45.075Z,7.68
2023-05-01T14:38:13.322Z,7.39
2023-05-01T14:40:40.293Z,7.34
2023-05-01T14:43:08.507Z,7.88
2023-05-01T14:45:35.336Z,7.18
2023-05-01T14:48:03.785Z,7.33
2023-05-01T14:50:30.744Z,6.79
2023-05-01T14:52:57.830Z,7.27
2023-05-01T14:55:24.653Z,7.01
2023-05-01T14:57:51.573Z,6.77
2023-05-01T15:00:18.702Z,7.02
2023-05-01T15:02:45.683Z,6.92
2023-05-01T15:05:13.193Z,6.57
2023-05-01T15:07:40.599Z,6.58
2023-05-01T15:10:08.427Z,6.71
2023-05-01T15:12:36.002Z,6.80
2023-05-01T15:15:02.569Z,6.43
2023-05-01T15:17:30.407Z,6.88
2023-05-01T15:19:57.552Z,7.15
2023-05-01T15:22:24.074Z,6.97
2023-05-01T15:24:50.572Z,7.49
2023-05-01T15:27:17.075Z,7.21
2023-05-01T15:29:43.571Z,7.12
2023-05-01T15:32:12.336Z,6.57
2023-05-01T15:34:39.318Z,7.06
2023-05-01T15:37:05.908Z,7.07
2023-05-01T15:39:32.445Z,6.92
2023-05-01T15:41:58.906Z,6.85
2023-05-01T15:44:25.322Z,7.29
2023-05-01T15:46:51.789Z,6.87
2023-05-01T15:49:18.312Z,6.96
2023-05-01T15:51:44.882Z,6.94
2023-05-01T15:54:11.407Z,6.78
2023-05-01T15:56:37.931Z,7.01
2023-05-01T15:59:04.407Z,7.16
2023-05-01T16:01:30.971Z,6.59
2023-05-01T16:03:57.559Z,6.56
2023-05-01T16:06:24.193Z,6.96
2023-05-01T16:08:50.651Z,7.12
2023-05-01T16:11:17.246Z,6.68
2023-05-01T16:13:43.743Z,6.80
2023-05-01T16:16:10.350Z,7.10
2023-05-01T16:18:36.862Z,6.88
2023-05-01T16:21:03.403Z,6.74
2023-05-01T16:23:29.849Z,6.60
2023-05-01T16:25:56.318Z,6.77
2023-05-01T16:28:22.878Z,6.86
2023-05-01T16:30:49.500Z,6.66
2023-05-01T16:33:18.243Z,6.49
2023-05-01T16:35:45.440Z,6.73
2023-05-01T16:38:11.939Z,6.73
2023-05-01T16:40:38.388Z,6.29
2023-05-01T16:43:04.880Z,6.85
2023-05-01T16:45:31.392Z,8.00
2023-05-01T16:47:57.971Z,8.17
2023-05-01T16:50:24.508Z,9.03
2023-05-01T16:52:51.038Z,8.24
2023-05-01T16:55:17.494Z,8.69
2023-05-01T16:57:44.604Z,8.34
2023-05-01T17:00:11.232Z,8.09
2023-05-01T17:02:37.800Z,7.63
2023-05-01T17:05:04.330Z,7.33
2023-05-01T17:07:30.803Z,7.13
2023-05-01T17:09:57.623Z,6.66
2023-05-01T17:12:24.534Z,6.97
2023-05-01T17:14:51.120Z,6.34
2023-05-01T17:17:17.589Z,6.57
2023-05-01T17:19:44.042Z,6.53
2023-05-01T17:22:10.484Z,6.20
2023-05-01T17:24:36.922Z,6.18
2023-05-01T17:27:03.357Z,5.95
2023-05-01T17:29:29.888Z,5.85
2023-05-01T17:31:56.525Z,5.87
2023-05-01T17:34:23.137Z,5.65
2023-05-01T17:36:49.695Z,5.51
2023-05-01T17:39:16.227Z,5.84
2023-05-01T17:41:42.670Z,5.43
2023-05-01T17:44:09.182Z,5.38
2023-05-01T17:46:35.726Z,5.67
2023-05-01T17:49:02.184Z,4.99
2023-05-01T17:51:28.806Z,5.23
2023-05-01T17:53:55.252Z,5.39
2023-05-01T17:56:21.785Z,4.81
2023-05-01T17:58:48.282Z,4.91
2023-05-01T18:01:14.712Z,4.61
2023-05-01T18:03:41.436Z,4.88
2023-05-01T18:06:08.051Z,4.69
2023-05-01T18:08:34.566Z,4.35
2023-05-01T18:11:01.120Z,4.32
2023-05-01T18:13:27.546Z,4.43
2023-05-01T18:15:54.051Z,4.37
2023-05-01T18:18:20.571Z,4.30
2023-05-01T18:20:47.112Z,4.42
2023-05-01T18:23:13.574Z,4.47
2023-05-01T18:25:40.105Z,4.22
2023-05-01T18:28:06.670Z,4.36
2023-05-01T18:30:33.114Z,4.11
2023-05-01T18:32:59.637Z,4.15
2023-05-01T18:35:26.115Z,4.23
2023-05-01T18:37:52.616Z,4.01
2023-05-01T18:40:19.083Z,4.00
2023-05-01T18:43:01.009Z,3.63
2023-05-01T18:45:27.520Z,3.93
2023-05-01T18:47:54.010Z,3.65
2023-05-01T18:50:20.525Z,3.95
2023-05-01T18:52:46.986Z,3.82
2023-05-01T18:55:13.508Z,3.79
2023-05-01T18:57:40.026Z,3.82
2023-05-01T19:00:06.573Z,3.73
2023-05-01T19:02:33.132Z,4.19
2023-05-01T19:04:59.612Z,3.85
2023-05-01T19:07:26.099Z,4.01
2023-05-01T19:09:52.735Z,3.91
2023-05-01T19:12:19.263Z,3.80
2023-05-01T19:14:45.759Z,3.80
2023-05-01T19:17:12.291Z,3.81
2023-05-01T19:19:38.833Z,3.80
2023-05-01T19:22:05.340Z,3.58
2023-05-01T19:24:31.819Z,3.93
2023-05-01T19:26:58.364Z,3.51
2023-05-01T19:29:24.877Z,3.79
2023-05-01T19:31:51.425Z,3.90
2023-05-01T19:34:17.961Z,3.72
2023-05-01T19:36:44.415Z,3.48
2023-05-01T19:39:10.923Z,3.78
2023-05-01T19:41:37.453Z,3.59
2023-05-01T19:44:04.076Z,3.53
2023-05-01T19:46:33.179Z,3.44
2023-05-01T19:48:59.928Z,3.67
2023-05-01T19:51:26.463Z,3.44
2023-05-01T19:53:53.010Z,3.28
2023-05-01T19:56:19.511Z,3.38
2023-05-01T19:58:46.055Z,3.59
2023-05-01T20:01:12.615Z,3.32
2023-05-01T20:03:39.111Z,3.35
2023-05-01T20:06:05.674Z,3.59
2023-05-01T20:08:32.146Z,3.39
2023-05-01T20:10:58.638Z,3.30
2023-05-01T20:13:25.040Z,3.55
2023-05-01T20:15:51.559Z,3.34
2023-05-01T20:18:18.094Z,3.35
2023-05-01T20:20:44.586Z,3.27
2023-05-01T20:23:11.156Z,3.18
2023-05-01T20:25:37.693Z,3.43
2023-05-01T20:28:04.260Z,3.32
2023-05-01T20:30:30.815Z,3.21
2023-05-01T20:32:57.362Z,3.32
2023-05-01T20:35:23.965Z,3.36
2023-05-01T20:37:50.417Z,3.14
2023-05-01T20:40:16.919Z,3.14
2023-05-01T20:42:43.409Z,3.34
2023-05-01T20:45:09.853Z,3.07
2023-05-01T20:47:36.371Z,3.16
2023-05-01T20:50:02.913Z,3.16
2023-05-01T20:52:29.494Z,3.27
2023-05-01T20:54:56.062Z,3.21
2023-05-01T20:57:22.612Z,3.44
2023-05-01T20:59:49.051Z,3.08
2023-05-01T21:02:15.583Z,3.16
2023-05-01T21:04:42.134Z,3.03
2023-05-01T21:07:08.581Z,2.98
2023-05-01T21:09:35.125Z,3.01
2023-05-01T21:12:01.648Z,3.06
2023-05-01T21:14:28.279Z,3.08
2023-05-01T21:16:54.854Z,2.99
2023-05-01T21:19:21.368Z,3.20
2023-05-01T21:21:47.793Z,3.11
2023-05-01T21:24:14.358Z,3.23
2023-05-01T21:26:40.914Z,3.14
2023-05-01T21:29:07.481Z,2.95
2023-05-01T21:31:33.999Z,3.28
2023-05-01T21:34:00.612Z,2.95
2023-05-01T21:36:27.211Z,2.84
2023-05-01T21:38:53.820Z,3.03
2023-05-01T21:41:20.399Z,2.90
2023-05-01T21:43:47.006Z,2.96
2023-05-01T21:46:13.566Z,2.84
2023-05-01T21:48:40.095Z,3.05
2023-05-01T21:51:06.707Z,3.08
2023-05-01T21:53:33.243Z,3.05
2023-05-01T21:55:59.791Z,3.04
2023-05-01T21:58:26.342Z,3.00
2023-05-01T22:00:52.933Z,2.98
2023-05-01T22:03:19.576Z,2.93
2023-05-01T22:05:46.197Z,3.08
2023-05-01T22:08:12.824Z,2.94
2023-05-01T22:10:39.430Z,3.14
2023-05-01T22:13:05.892Z,2.84
2023-05-01T22:15:32.403Z,2.77
2023-05-01T22:17:59.025Z,2.64
2023-05-01T22:20:25.631Z,3.07
2023-05-01T22:22:52.185Z,2.74
2023-05-01T22:25:18.680Z,2.71
2023-05-01T22:27:45.184Z,2.80
2023-05-01T22:30:11.731Z,3.01
2023-05-01T22:32:38.360Z,2.92
2023-05-01T22:35:04.976Z,2.95
2023-05-01T22:37:31.533Z,2.69
2023-05-01T22:39:58.270Z,2.83
2023-05-01T22:42:24.853Z,2.95
2023-05-01T22:44:51.418Z,2.78
2023-05-01T22:47:17.926Z,2.77
2023-05-01T22:49:44.518Z,2.74
2023-05-01T22:52:11.016Z,2.71
2023-05-01T22:54:37.566Z,2.80
2023-05-01T22:57:04.112Z,2.81
2023-05-01T22:59:30.597Z,2.75
2023-05-01T23:01:57.138Z,2.65
2023-05-01T23:04:23.817Z,2.86
2023-05-01T23:06:50.512Z,2.77
2023-05-01T23:09:17.004Z,2.74
2023-05-01T23:11:43.496Z,2.78
2023-05-01T23:14:10.076Z,2.86
2023-05-01T23:16:36.719Z,2.73
2023-05-01T23:19:03.280Z,2.76
2023-05-01T23:21:29.771Z,2.78
2023-05-01T23:23:56.248Z,2.56
2023-05-01T23:26:22.741Z,2.71
2023-05-01T23:28:49.218Z,2.67
2023-05-01T23:31:15.881Z,2.58
2023-05-01T23:33:42.422Z,2.84
2023-05-01T23:36:08.919Z,2.86
2023-05-01T23:38:35.440Z,2.76
2023-05-01T23:41:01.975Z,2.96
2023-05-01T23:43:28.524Z,2.60
2023-05-01T23:45:55.056Z,2.63
2023-05-01T23:48:21.585Z,2.52
2023-05-01T23:50:48.103Z,2.64
2023-05-01T23:53:14.599Z,2.68
2023-05-01T23:55:41.030Z,2.57
2023-05-01T23:58:07.431Z,2.65
